Terminal Aerodrome Forecast
Issued by NWS Sterling, VA

Current Version | Previous Version | Text Only | Print | Product List | Glossary Off
Versions: 1 2 3 4 5 6 7 8 9 10 11 12 13 14 15 16 17 18 19 20 21 22 23 24

000
FTUS41 KLWX 220600 AAA
TAFDCA
TAF AMD
KDCA 220640Z 2207/2306 21004KT P6SM BKN014 BKN250
     FM220800 00000KT P6SM BKN030
     FM221300 00000KT P6SM BKN015
     FM221600 VRB03KT P6SM BKN050
     FM222200 17008KT P6SM SCT050
     FM230300 19008KT P6SM BKN050=

USA.gov is the U.S. government's official web portal to all federal, state and local government web resources and services.